createdAt,value
2022-09-01T00:02:24.531Z,100418.61
2022-09-01T00:05:30.336Z,100419.28
2022-09-01T00:08:37.408Z,100429.98
2022-09-01T00:11:43.603Z,100431.19
2022-09-01T00:14:53.449Z,100428.00
2022-09-01T00:17:59.916Z,100431.25
2022-09-01T00:21:06.025Z,100434.35
2022-09-01T00:24:12.270Z,100432.17
2022-09-01T00:27:17.485Z,100430.15
2022-09-01T00:30:25.000Z,100441.45
2022-09-01T00:33:32.490Z,100443.80
2022-09-01T00:36:38.118Z,100441.17
2022-09-01T00:39:43.880Z,100446.92
2022-09-01T00:42:51.483Z,100445.98
2022-09-01T00:45:58.610Z,100447.17
2022-09-01T00:49:16.197Z,100442.78
2022-09-01T00:52:33.422Z,100444.27
2022-09-01T00:55:36.611Z,100443.02
2022-09-01T00:58:45.624Z,100440.92
2022-09-01T01:01:52.145Z,100446.55
2022-09-01T01:04:59.347Z,100444.14
2022-09-01T01:08:07.199Z,100444.15
2022-09-01T01:11:18.562Z,100443.30
2022-09-01T01:14:26.901Z,100440.58
2022-09-01T01:17:35.619Z,100445.12
2022-09-01T01:21:00.114Z,100444.19
2022-09-01T01:24:14.500Z,100448.13
2022-09-01T01:27:19.922Z,100442.80
2022-09-01T01:30:20.952Z,100444.53
2022-09-01T01:33:27.199Z,100441.86
2022-09-01T01:36:45.377Z,100442.94
2022-09-01T01:39:51.760Z,100450.50
2022-09-01T01:43:04.051Z,100440.08
2022-09-01T01:46:12.871Z,100443.28
2022-09-01T01:49:20.273Z,100443.28
2022-09-01T01:52:28.781Z,100437.53
2022-09-01T01:55:37.534Z,100441.25
2022-09-01T01:58:42.860Z,100433.08
2022-09-01T02:01:51.008Z,100429.98
2022-09-01T02:04:56.719Z,100443.58
2022-09-01T02:08:06.260Z,100439.61
2022-09-01T02:11:13.295Z,100436.31
2022-09-01T02:14:23.207Z,100437.27
2022-09-01T02:17:30.205Z,100434.63
2022-09-01T02:20:37.052Z,100435.56
2022-09-01T02:23:46.198Z,100443.11
2022-09-01T02:26:56.550Z,100435.55
2022-09-01T02:30:02.514Z,100443.95
2022-09-01T02:33:08.880Z,100440.45
2022-09-01T02:36:20.884Z,100440.66
2022-09-01T02:39:29.608Z,100441.91
2022-09-01T02:42:37.202Z,100439.70
2022-09-01T02:45:44.343Z,100439.05
2022-09-01T02:48:52.606Z,100440.73
2022-09-01T02:51:56.899Z,100440.43
2022-09-01T02:54:51.716Z,100453.38
2022-09-01T02:57:57.469Z,100451.55
2022-09-01T03:01:08.272Z,100451.13
2022-09-01T03:04:19.359Z,100453.52
2022-09-01T03:07:28.871Z,100455.87
2022-09-01T03:10:37.578Z,100470.09
2022-09-01T03:13:43.956Z,100473.16
2022-09-01T03:16:52.421Z,100475.78
2022-09-01T03:19:59.253Z,100476.20
2022-09-01T03:23:06.235Z,100474.72
2022-09-01T03:26:12.093Z,100481.31
2022-09-01T03:29:18.066Z,100482.69
2022-09-01T03:32:25.849Z,100482.13
2022-09-01T03:35:32.110Z,100487.03
2022-09-01T03:38:40.243Z,100487.03
2022-09-01T03:41:45.179Z,100500.63
2022-09-01T03:44:51.435Z,100500.94
2022-09-01T03:48:00.463Z,100496.59
2022-09-01T03:51:11.126Z,100497.11
2022-09-01T03:54:17.921Z,100500.52
2022-09-01T03:57:23.878Z,100505.52
2022-09-01T04:00:31.781Z,100510.11
2022-09-01T04:03:42.931Z,100505.00
2022-09-01T04:06:54.139Z,100504.80
2022-09-01T04:10:00.712Z,100510.77
2022-09-01T04:13:07.247Z,100513.00
2022-09-01T04:16:17.859Z,100517.04
2022-09-01T04:19:30.874Z,100519.08
2022-09-01T04:22:37.657Z,100516.62
2022-09-01T04:25:45.462Z,100517.06
2022-09-01T04:28:55.071Z,100517.20
2022-09-01T04:32:00.709Z,100515.06
2022-09-01T04:35:09.649Z,100511.50
2022-09-01T04:38:16.925Z,100518.81
2022-09-01T04:41:25.032Z,100513.63
2022-09-01T04:44:36.792Z,100511.48
2022-09-01T04:47:44.781Z,100508.20
2022-09-01T04:50:55.768Z,100509.51
2022-09-01T04:54:04.887Z,100503.97
2022-09-01T04:57:14.130Z,100510.27
2022-09-01T05:00:23.868Z,100508.16
2022-09-01T05:03:32.363Z,100502.26
2022-09-01T05:06:41.435Z,100506.85
2022-09-01T05:09:50.835Z,100505.70
2022-09-01T05:13:07.989Z,100508.65
2022-09-01T05:16:25.274Z,100506.10
2022-09-01T05:19:32.302Z,100510.89
2022-09-01T05:22:41.381Z,100504.92
2022-09-01T05:25:50.167Z,100506.39
2022-09-01T05:28:58.087Z,100509.23
2022-09-01T05:32:04.443Z,100508.27
2022-09-01T05:35:12.372Z,100510.92
2022-09-01T05:38:20.467Z,100503.23
2022-09-01T05:41:27.350Z,100502.44
2022-09-01T05:44:34.735Z,100502.84
2022-09-01T05:47:44.337Z,100515.47
2022-09-01T05:50:51.003Z,100517.77
2022-09-01T05:53:58.710Z,100520.82
2022-09-01T05:57:30.283Z,100512.47
2022-09-01T06:00:14.660Z,100512.22
2022-09-01T06:03:22.055Z,100508.03
2022-09-01T06:06:40.029Z,100510.20
2022-09-01T06:09:38.455Z,100513.53
2022-09-01T06:12:48.693Z,100513.45
2022-09-01T06:15:55.002Z,100515.13
2022-09-01T06:19:04.442Z,100511.76
2022-09-01T06:22:11.841Z,100517.25
2022-09-01T06:25:18.801Z,100514.52
2022-09-01T06:28:30.381Z,100520.11
2022-09-01T06:31:44.406Z,100531.45
2022-09-01T06:34:58.428Z,100513.67
2022-09-01T06:38:12.051Z,100509.78
2022-09-01T06:41:27.406Z,100513.09
2022-09-01T06:44:41.246Z,100507.78
2022-09-01T06:47:46.898Z,100507.84
2022-09-01T06:54:10.836Z,100514.33
2022-09-01T07:00:30.895Z,100518.48
2022-09-01T07:03:39.331Z,100516.50
2022-09-01T07:08:04.578Z,100511.73
2022-09-01T07:10:17.723Z,100516.95
2022-09-01T07:13:16.118Z,100515.81
2022-09-01T07:16:51.699Z,100521.59
2022-09-01T07:19:57.737Z,100517.63
2022-09-01T07:23:05.536Z,100522.63
2022-09-01T07:26:24.699Z,100522.67
2022-09-01T07:29:26.614Z,100520.58
2022-09-01T07:32:43.579Z,100516.31
2022-09-01T07:45:32.251Z,100513.12
2022-09-01T07:51:47.066Z,100515.28
2022-09-01T07:54:56.859Z,100519.41
2022-09-01T07:58:03.302Z,100519.55
2022-09-01T08:01:17.570Z,100512.41
2022-09-01T08:04:27.979Z,100510.66
2022-09-01T08:07:58.161Z,100505.45
2022-09-01T08:11:04.245Z,100509.48
2022-09-01T08:14:06.742Z,100509.22
2022-09-01T08:17:18.042Z,100504.80
2022-09-01T08:20:22.744Z,100497.66
2022-09-01T08:23:34.631Z,100499.59
2022-09-01T08:26:44.269Z,100507.33
2022-09-01T08:29:55.676Z,100494.05
2022-09-01T08:33:12.704Z,100498.52
2022-09-01T08:36:22.902Z,100500.16
2022-09-01T08:39:24.827Z,100496.48
2022-09-01T08:42:49.318Z,100493.72
2022-09-01T08:46:11.174Z,100492.38
2022-09-01T08:49:26.627Z,100501.84
2022-09-01T08:52:50.097Z,100492.94
2022-09-01T08:56:02.898Z,100491.73
2022-09-01T08:59:08.774Z,100492.84
2022-09-01T09:02:46.205Z,100497.06
2022-09-01T09:06:25.213Z,100501.48
2022-09-01T09:09:33.471Z,100486.31
2022-09-01T09:13:09.800Z,100488.70
2022-09-01T09:16:34.892Z,100508.41
2022-09-01T09:19:49.531Z,100508.48
2022-09-01T09:22:59.832Z,100496.72
2022-09-01T09:26:07.986Z,100495.71
2022-09-01T09:29:12.519Z,100501.17
2022-09-01T09:32:24.027Z,100496.77
2022-09-01T09:35:39.888Z,100500.30
2022-09-01T09:38:45.796Z,100491.82
2022-09-01T09:41:53.870Z,100493.72
2022-09-01T09:45:02.676Z,100490.73
2022-09-01T09:48:10.886Z,100493.04
2022-09-01T09:51:36.842Z,100496.30
2022-09-01T09:54:45.004Z,100495.27
2022-09-01T09:57:54.534Z,100488.82
2022-09-01T10:01:17.506Z,100491.20
2022-09-01T10:04:23.394Z,100493.45
2022-09-01T10:07:52.087Z,100491.95
2022-09-01T10:11:05.388Z,100493.81
2022-09-01T10:14:13.608Z,100499.06
2022-09-01T10:17:35.952Z,100500.91
2022-09-01T10:20:41.842Z,100494.47
2022-09-01T10:23:51.471Z,100490.33
2022-09-01T10:26:58.769Z,100477.20
2022-09-01T10:30:23.201Z,100478.42
2022-09-01T10:33:31.693Z,100480.27
2022-09-01T10:36:41.488Z,100473.43
2022-09-01T10:39:51.661Z,100477.81
2022-09-01T10:42:59.311Z,100482.62
2022-09-01T10:46:09.076Z,100483.60
2022-09-01T10:49:46.873Z,100477.94
2022-09-01T10:53:04.963Z,100491.50
2022-09-01T10:56:43.686Z,100480.59
2022-09-01T10:59:56.850Z,100480.59
2022-09-01T11:02:54.832Z,100464.66
2022-09-01T11:06:14.449Z,100470.16
2022-09-01T11:09:43.200Z,100473.30
2022-09-01T11:12:59.661Z,100459.17
2022-09-01T11:20:18.551Z,100455.23
2022-09-01T11:28:07.717Z,100472.08
2022-09-01T11:31:57.595Z,100470.21
2022-09-01T11:35:04.457Z,100470.66
2022-09-01T11:38:17.145Z,100468.30
2022-09-01T11:41:23.500Z,100469.60
2022-09-01T11:45:06.726Z,100473.75
2022-09-01T11:48:24.324Z,100476.23
2022-09-01T11:51:31.085Z,100465.80
2022-09-01T11:54:38.379Z,100478.42
2022-09-01T11:57:52.193Z,100465.22
2022-09-01T12:00:57.815Z,100459.27
2022-09-01T12:04:05.202Z,100454.17
2022-09-01T12:07:20.562Z,100458.69
2022-09-01T12:10:42.588Z,100449.12
2022-09-01T12:13:47.940Z,100445.19
2022-09-01T12:16:55.199Z,100444.37
2022-09-01T12:20:01.901Z,100445.12
2022-09-01T12:23:09.609Z,100447.98
2022-09-01T12:26:26.416Z,100454.83
2022-09-01T12:29:35.697Z,100455.16
2022-09-01T12:32:42.715Z,100447.83
2022-09-01T12:35:50.741Z,100461.23
2022-09-01T12:38:58.531Z,100446.04
2022-09-01T12:42:20.862Z,100444.86
2022-09-01T12:45:27.618Z,100447.89
2022-09-01T12:48:53.440Z,100445.15
2022-09-01T12:52:00.777Z,100435.93
2022-09-01T12:58:23.923Z,100438.62
2022-09-01T13:01:42.466Z,100431.95
2022-09-01T13:04:48.453Z,100426.48
2022-09-01T13:07:55.120Z,100434.70
2022-09-01T13:11:08.238Z,100434.84
2022-09-01T13:14:15.257Z,100434.91
2022-09-01T13:17:20.702Z,100439.91
2022-09-01T13:20:26.875Z,100452.80
2022-09-01T13:23:33.757Z,100439.16
2022-09-01T13:26:39.269Z,100444.65
2022-09-01T13:29:53.158Z,100446.57
2022-09-01T13:33:20.334Z,100441.73
2022-09-01T13:39:42.358Z,100446.58
2022-09-01T13:42:49.597Z,100451.86
2022-09-01T13:45:59.078Z,100444.97
2022-09-01T13:49:42.038Z,100435.65
2022-09-01T13:52:14.504Z,100431.31
2022-09-01T13:55:22.253Z,100428.17
2022-09-01T13:58:28.030Z,100443.53
2022-09-01T14:01:37.088Z,100438.87
2022-09-01T14:04:44.887Z,100438.98
2022-09-01T14:07:55.534Z,100444.67
2022-09-01T14:11:07.337Z,100450.86
2022-09-01T14:14:14.734Z,100452.27
2022-09-01T14:17:21.127Z,100456.80
2022-09-01T14:20:29.878Z,100461.38
2022-09-01T14:23:36.151Z,100460.84
2022-09-01T14:26:46.141Z,100463.63
2022-09-01T14:29:54.896Z,100463.88
2022-09-01T14:33:01.491Z,100466.67
2022-09-01T14:36:10.041Z,100462.69
2022-09-01T14:39:16.157Z,100472.83
2022-09-01T14:42:23.426Z,100478.11
2022-09-01T14:45:30.217Z,100470.25
2022-09-01T14:48:37.121Z,100478.21
2022-09-01T14:54:52.968Z,100480.16
2022-09-01T14:57:59.020Z,100480.13
2022-09-01T15:01:23.525Z,100477.05
2022-09-01T15:04:14.080Z,100477.23
2022-09-01T15:07:21.678Z,100471.81
2022-09-01T15:10:30.421Z,100489.02
2022-09-01T15:13:36.642Z,100492.44
2022-09-01T15:16:44.434Z,100498.09
2022-09-01T15:19:50.510Z,100491.69
2022-09-01T15:22:57.179Z,100497.63
2022-09-01T15:26:07.115Z,100493.23
2022-09-01T15:29:16.371Z,100494.02
2022-09-01T15:32:27.758Z,100496.95
2022-09-01T15:35:30.907Z,100493.16
2022-09-01T15:38:35.788Z,100487.75
2022-09-01T15:41:45.076Z,100496.17
2022-09-01T15:44:50.283Z,100503.08
2022-09-01T15:47:57.993Z,100501.94
2022-09-01T15:51:04.534Z,100504.19
2022-09-01T15:54:15.786Z,100513.09
2022-09-01T15:57:23.329Z,100518.66
2022-09-01T16:00:30.954Z,100523.14
2022-09-01T16:03:38.700Z,100525.63
2022-09-01T16:06:46.726Z,100520.11
2022-09-01T16:09:52.779Z,100521.71
2022-09-01T16:12:59.917Z,100536.92
2022-09-01T16:16:30.534Z,100549.63
2022-09-01T16:20:10.005Z,100552.67
2022-09-01T16:23:38.557Z,100548.73
2022-09-01T16:26:45.014Z,100557.23
2022-09-01T16:29:59.451Z,100571.59
2022-09-01T16:33:05.942Z,100567.61
2022-09-01T16:36:50.221Z,100571.91
2022-09-01T16:40:09.799Z,100579.30
2022-09-01T16:43:57.207Z,100589.70
2022-09-01T16:47:21.055Z,100588.53
2022-09-01T16:50:55.509Z,100590.30
2022-09-01T16:54:12.858Z,100587.96
2022-09-01T16:57:35.950Z,100599.69
2022-09-01T17:00:46.709Z,100605.44
2022-09-01T17:04:18.808Z,100611.70
2022-09-01T17:07:43.247Z,100607.62
2022-09-01T17:11:14.789Z,100608.32
2022-09-01T17:14:22.709Z,100619.97
2022-09-01T17:17:33.876Z,100618.72
2022-09-01T17:20:43.143Z,100624.29
2022-09-01T17:23:55.578Z,100627.64
2022-09-01T17:27:01.495Z,100629.58
2022-09-01T17:30:08.318Z,100637.83
2022-09-01T17:33:25.702Z,100634.66
2022-09-01T17:36:38.147Z,100645.02
2022-09-01T17:40:05.681Z,100644.08
2022-09-01T17:43:32.551Z,100646.77
2022-09-01T17:47:06.039Z,100648.89
2022-09-01T17:54:14.571Z,100651.88
2022-09-01T17:57:37.597Z,100656.64
2022-09-01T18:01:00.003Z,100656.77
2022-09-01T18:04:45.134Z,100655.69
2022-09-01T18:08:31.898Z,100656.97
2022-09-01T18:12:18.618Z,100656.23
2022-09-01T18:15:35.968Z,100660.69
2022-09-01T18:18:52.473Z,100661.84
2022-09-01T18:22:07.122Z,100660.23
2022-09-01T18:25:20.762Z,100665.23
2022-09-01T18:28:27.826Z,100669.16
2022-09-01T18:31:59.889Z,100666.72
2022-09-01T18:35:40.295Z,100677.03
2022-09-01T18:39:12.560Z,100672.44
2022-09-01T18:42:37.371Z,100671.34
2022-09-01T18:46:04.616Z,100677.85
2022-09-01T18:49:36.210Z,100683.67
2022-09-01T18:53:18.404Z,100678.98
2022-09-01T18:57:03.875Z,100685.55
2022-09-01T19:00:25.643Z,100682.97
2022-09-01T19:03:58.447Z,100693.30
2022-09-01T19:07:34.081Z,100687.08
2022-09-01T19:10:58.226Z,100698.20
2022-09-01T19:14:36.527Z,100707.00
2022-09-01T19:17:57.030Z,100710.14
2022-09-01T19:21:19.919Z,100716.42
2022-09-01T19:24:33.111Z,100711.61
2022-09-01T19:27:42.437Z,100716.38
2022-09-01T19:30:50.193Z,100719.75
2022-09-01T19:34:04.429Z,100711.01
2022-09-01T19:37:15.407Z,100716.38
2022-09-01T19:40:25.132Z,100717.55
2022-09-01T19:43:31.934Z,100720.52
2022-09-01T19:46:48.425Z,100727.62
2022-09-01T19:49:59.100Z,100722.30
2022-09-01T19:53:29.821Z,100724.05
2022-09-01T19:56:49.832Z,100737.74
2022-09-01T20:00:05.009Z,100739.21
2022-09-01T20:03:24.077Z,100740.65
2022-09-01T20:06:50.113Z,100741.25
2022-09-01T20:10:18.073Z,100738.55
2022-09-01T20:13:32.125Z,100748.81
2022-09-01T20:17:01.649Z,100738.26
2022-09-01T20:20:26.841Z,100746.59
2022-09-01T20:23:43.055Z,100745.61
2022-09-01T20:26:52.176Z,100748.62
2022-09-01T20:30:25.581Z,100745.39
2022-09-01T20:33:41.674Z,100751.70
2022-09-01T20:37:01.159Z,100751.75
2022-09-01T20:40:19.035Z,100762.98
2022-09-01T20:43:32.431Z,100766.14
2022-09-01T20:46:39.179Z,100768.11
2022-09-01T20:49:49.821Z,100770.20
2022-09-01T20:53:22.199Z,100769.73
2022-09-01T20:56:42.094Z,100776.54
2022-09-01T21:00:03.017Z,100787.52
2022-09-01T21:03:34.591Z,100778.78
2022-09-01T21:07:06.776Z,100784.20
2022-09-01T21:10:33.750Z,100790.95
2022-09-01T21:14:02.204Z,100790.16
2022-09-01T21:17:18.109Z,100787.78
2022-09-01T21:21:07.886Z,100798.33
2022-09-01T21:24:15.280Z,100798.01
2022-09-01T21:27:31.678Z,100810.92
2022-09-01T21:30:39.406Z,100807.53
2022-09-01T21:33:46.574Z,100808.08
2022-09-01T21:36:55.426Z,100809.84
2022-09-01T21:40:03.702Z,100813.17
2022-09-01T21:43:15.933Z,100821.50
2022-09-01T21:46:26.132Z,100816.37
2022-09-01T21:49:35.526Z,100807.47
2022-09-01T21:52:43.626Z,100809.42
2022-09-01T21:55:50.295Z,100806.37
2022-09-01T21:58:58.190Z,100814.02
2022-09-01T22:02:05.301Z,100822.50
2022-09-01T22:05:12.277Z,100826.84
2022-09-01T22:08:20.895Z,100826.05
2022-09-01T22:11:26.037Z,100836.25
2022-09-01T22:14:33.220Z,100834.44
2022-09-01T22:17:38.569Z,100836.72
2022-09-01T22:20:45.043Z,100834.91
2022-09-01T22:23:51.509Z,100839.46
2022-09-01T22:26:51.216Z,100845.35
2022-09-01T22:29:59.536Z,100850.72
2022-09-01T22:33:06.308Z,100853.16
2022-09-01T22:36:12.073Z,100855.97
2022-09-01T22:39:18.229Z,100856.89
2022-09-01T22:42:25.030Z,100866.39
2022-09-01T22:45:33.148Z,100870.03
2022-09-01T22:48:40.507Z,100859.62
2022-09-01T22:51:46.655Z,100864.47
2022-09-01T22:54:52.702Z,100866.08
2022-09-01T22:58:00.117Z,100865.94
2022-09-01T23:01:07.129Z,100868.15
2022-09-01T23:04:14.800Z,100863.91
2022-09-01T23:07:21.072Z,100877.50
2022-09-01T23:10:27.132Z,100870.63
2022-09-01T23:13:35.132Z,100864.66
2022-09-01T23:16:42.617Z,100868.13
2022-09-01T23:19:48.178Z,100868.66
2022-09-01T23:22:57.220Z,100873.16
2022-09-01T23:26:03.367Z,100879.16
2022-09-01T23:29:09.232Z,100876.44
2022-09-01T23:32:14.532Z,100881.41
2022-09-01T23:35:20.642Z,100875.59
2022-09-01T23:38:27.711Z,100890.20
2022-09-01T23:41:39.240Z,100886.58
2022-09-01T23:44:44.971Z,100886.76
2022-09-01T23:47:52.667Z,100891.94
2022-09-01T23:51:12.969Z,100892.80
2022-09-01T23:54:18.818Z,100895.89
2022-09-01T23:57:25.993Z,100897.25
